createdAt,value
2019-01-20T00:21:59.674Z,99769.78
2019-01-20T00:24:28.833Z,99773.93
2019-01-20T00:26:58.333Z,99773.11
2019-01-20T00:29:28.050Z,99772.94
2019-01-20T00:31:57.514Z,99765.81
2019-01-20T00:34:27.003Z,99769.26
2019-01-20T00:36:56.286Z,99772.12
2019-01-20T00:39:25.755Z,99766.50
2019-01-20T00:41:55.259Z,99762.69
2019-01-20T00:44:24.434Z,99763.04
2019-01-20T00:46:53.960Z,99761.88
2019-01-20T00:49:23.124Z,99762.38
2019-01-20T00:52:11.666Z,99760.88
2019-01-20T00:54:41.189Z,99763.39
2019-01-20T00:57:10.647Z,99766.17
2019-01-20T00:59:39.839Z,99770.01
2019-01-20T01:02:09.036Z,99769.66
2019-01-20T01:04:38.215Z,99769.48
2019-01-20T01:07:07.418Z,99767.86
2019-01-20T01:09:36.610Z,99769.31
2019-01-20T01:17:22.483Z,99772.16
2019-01-20T01:19:51.911Z,99775.29
2019-01-20T01:22:21.110Z,99776.61
2019-01-20T01:24:50.282Z,99777.45
2019-01-20T01:27:20.057Z,99776.79
2019-01-20T01:29:49.497Z,99779.44
2019-01-20T01:32:19.165Z,99772.97
2019-01-20T01:34:48.339Z,99776.46
2019-01-20T01:37:17.787Z,99771.98
2019-01-20T01:39:46.971Z,99769.52
2019-01-20T01:42:16.147Z,99767.53
2019-01-20T01:44:45.365Z,99768.19
2019-01-20T01:47:14.540Z,99768.17
2019-01-20T01:49:43.740Z,99769.33
2019-01-20T01:52:13.447Z,99775.14
2019-01-20T01:54:43.033Z,99774.63
2019-01-20T01:57:12.197Z,99769.83
2019-01-20T01:59:41.971Z,99771.84
2019-01-20T02:02:11.140Z,99771.17
2019-01-20T02:04:40.333Z,99767.52
2019-01-20T02:07:09.526Z,99765.55
2019-01-20T02:09:39.392Z,99770.84
2019-01-20T02:12:08.845Z,99773.97
2019-01-20T02:14:38.047Z,99767.86
2019-01-20T02:17:08.550Z,99772.79
2019-01-20T02:19:38.024Z,99767.84
2019-01-20T02:22:07.198Z,99774.47
2019-01-20T02:24:36.634Z,99773.80
2019-01-20T02:27:06.211Z,99777.58
2019-01-20T02:29:35.393Z,99782.23
2019-01-20T02:32:04.742Z,99783.70
2019-01-20T02:34:34.199Z,99782.39
2019-01-20T02:37:03.673Z,99783.73
2019-01-20T02:39:33.456Z,99780.25
2019-01-20T02:42:02.629Z,99783.39
2019-01-20T02:44:32.076Z,99779.10
2019-01-20T02:47:01.258Z,99782.73
2019-01-20T02:49:38.116Z,99779.42
2019-01-20T02:52:07.574Z,99780.58
2019-01-20T02:54:37.608Z,99781.25
2019-01-20T02:57:07.092Z,99781.41
2019-01-20T02:59:36.832Z,99783.57
2019-01-20T03:02:06.407Z,99790.02
2019-01-20T03:04:35.968Z,99780.61
2019-01-20T03:07:05.535Z,99777.45
2019-01-20T03:09:34.752Z,99774.14
2019-01-20T03:12:03.939Z,99768.19
2019-01-20T03:14:33.145Z,99770.66
2019-01-20T03:17:02.853Z,99773.14
2019-01-20T03:19:32.639Z,99768.20
2019-01-20T03:22:02.094Z,99766.20
2019-01-20T03:24:31.258Z,99771.00
2019-01-20T03:27:00.840Z,99771.48
2019-01-20T03:29:29.999Z,99768.84
2019-01-20T03:31:59.216Z,99771.00
2019-01-20T03:34:28.409Z,99765.55
2019-01-20T03:36:57.933Z,99768.02
2019-01-20T03:39:27.807Z,99770.02
2019-01-20T03:41:57.265Z,99773.82
2019-01-20T03:44:27.125Z,99775.12
2019-01-20T03:46:56.310Z,99774.16
2019-01-20T03:49:25.866Z,99773.31
2019-01-20T03:51:55.069Z,99778.94
2019-01-20T03:54:24.913Z,99781.25
2019-01-20T03:56:54.417Z,99771.83
2019-01-20T03:59:23.846Z,99770.83
2019-01-20T04:01:53.083Z,99772.17
2019-01-20T04:04:22.241Z,99771.48
2019-01-20T04:06:51.689Z,99775.45
2019-01-20T04:09:20.891Z,99773.64
2019-01-20T04:11:50.098Z,99771.31
2019-01-20T04:14:19.270Z,99774.14
2019-01-20T04:16:49.028Z,99772.31
2019-01-20T04:19:18.203Z,99772.98
2019-01-20T04:21:47.431Z,99777.44
2019-01-20T04:24:16.599Z,99772.16
2019-01-20T04:26:45.794Z,99770.00
2019-01-20T04:29:15.531Z,99773.81
2019-01-20T04:31:45.311Z,99773.45
2019-01-20T04:34:14.751Z,99760.89
2019-01-20T04:36:44.626Z,99770.81
2019-01-20T04:39:14.119Z,99766.19
2019-01-20T04:41:43.591Z,99770.95
2019-01-20T04:44:12.766Z,99766.67
2019-01-20T04:46:42.028Z,99765.17
2019-01-20T04:49:11.737Z,99768.13
2019-01-20T04:51:40.943Z,99770.77
2019-01-20T04:56:46.283Z,99774.91
2019-01-20T04:59:15.484Z,99771.09
2019-01-20T05:01:44.957Z,99778.04
2019-01-20T05:04:14.815Z,99771.26
2019-01-20T05:06:43.993Z,99775.53
2019-01-20T05:09:13.446Z,99782.97
2019-01-20T05:11:43.001Z,99780.67
2019-01-20T05:14:12.193Z,99778.52
2019-01-20T05:16:41.927Z,99786.09
2019-01-20T05:19:11.725Z,99788.91
2019-01-20T05:21:40.912Z,99786.76
2019-01-20T05:24:10.084Z,99792.53
2019-01-20T05:26:39.246Z,99797.20
2019-01-20T05:29:08.440Z,99796.41
2019-01-20T05:31:37.873Z,99798.05
2019-01-20T05:34:07.069Z,99792.27
2019-01-20T05:36:36.228Z,99792.27
2019-01-20T05:39:08.975Z,99786.49
2019-01-20T05:41:38.130Z,99786.15
2019-01-20T05:44:07.336Z,99783.33
2019-01-20T05:46:36.508Z,99787.60
2019-01-20T05:49:06.000Z,99781.34
2019-01-20T05:51:35.456Z,99788.09
2019-01-20T05:54:05.211Z,99788.43
2019-01-20T05:56:34.668Z,99787.59
2019-01-20T05:59:04.119Z,99790.23
2019-01-20T06:01:33.561Z,99792.89
2019-01-20T06:04:03.308Z,99797.91
2019-01-20T06:06:32.756Z,99801.87
2019-01-20T06:09:02.486Z,99808.13
2019-01-20T06:11:31.935Z,99812.75
2019-01-20T06:14:01.415Z,99813.28
2019-01-20T06:16:30.839Z,99811.44
2019-01-20T06:19:00.048Z,99812.27
2019-01-20T06:21:29.476Z,99811.43
2019-01-20T06:23:58.673Z,99816.05
2019-01-20T06:26:28.098Z,99819.36
2019-01-20T06:28:57.292Z,99818.87
2019-01-20T06:31:26.718Z,99822.49
2019-01-20T06:33:56.148Z,99819.84
2019-01-20T06:36:25.334Z,99820.19
2019-01-20T06:38:54.529Z,99823.98
2019-01-20T06:41:23.730Z,99825.96
2019-01-20T06:43:53.185Z,99830.77
2019-01-20T06:46:22.628Z,99833.23
2019-01-20T06:48:52.450Z,99838.03
2019-01-20T06:51:22.457Z,99841.17
2019-01-20T06:53:51.923Z,99842.14
2019-01-20T06:56:21.375Z,99848.74
2019-01-20T06:58:50.834Z,99852.39
2019-01-20T07:01:20.031Z,99858.16
2019-01-20T07:03:49.211Z,99860.31
2019-01-20T07:06:18.403Z,99858.17
2019-01-20T07:08:48.115Z,99861.47
2019-01-20T07:11:17.333Z,99866.27
2019-01-20T07:13:46.494Z,99869.87
2019-01-20T07:16:15.681Z,99873.84
2019-01-20T07:18:44.870Z,99872.53
2019-01-20T07:21:14.360Z,99872.87
2019-01-20T07:23:43.909Z,99878.81
2019-01-20T07:26:13.128Z,99885.73
2019-01-20T07:28:42.322Z,99891.69
2019-01-20T07:31:11.818Z,99891.02
2019-01-20T07:33:41.537Z,99896.66
2019-01-20T07:36:11.618Z,99900.09
2019-01-20T07:38:40.901Z,99900.95
2019-01-20T07:41:10.663Z,99909.03
2019-01-20T07:43:40.523Z,99903.55
2019-01-20T07:46:10.235Z,99908.19
2019-01-20T07:48:39.414Z,99914.44
2019-01-20T07:51:08.936Z,99920.56
2019-01-20T07:53:38.375Z,99922.41
2019-01-20T07:56:07.586Z,99920.44
2019-01-20T07:58:36.744Z,99932.52
2019-01-20T08:01:06.068Z,99936.81
2019-01-20T08:03:35.523Z,99938.84
2019-01-20T08:06:05.612Z,99943.66
2019-01-20T08:08:35.065Z,99944.14
2019-01-20T08:11:04.902Z,99948.95
2019-01-20T08:13:34.361Z,99945.16
2019-01-20T08:16:03.866Z,99950.81
2019-01-20T08:18:33.417Z,99958.28
2019-01-20T08:21:03.250Z,99955.16
2019-01-20T08:23:32.706Z,99958.00
2019-01-20T08:26:02.324Z,99954.55
2019-01-20T08:28:31.515Z,99955.39
2019-01-20T08:31:00.669Z,99960.38
2019-01-20T08:33:29.867Z,99964.86
2019-01-20T08:35:59.729Z,99968.53
2019-01-20T08:38:28.929Z,99980.95
2019-01-20T08:40:58.711Z,99980.43
2019-01-20T08:43:31.932Z,99986.55
2019-01-20T08:46:22.395Z,99981.23
2019-01-20T08:48:52.260Z,99985.52
2019-01-20T08:51:21.791Z,99981.86
2019-01-20T08:53:51.648Z,99987.17
2019-01-20T08:56:21.085Z,99994.45
2019-01-20T08:58:50.714Z,99989.16
2019-01-20T09:01:20.168Z,99989.83
2019-01-20T09:03:49.963Z,99990.34
2019-01-20T09:06:19.664Z,99998.44
2019-01-20T09:08:48.854Z,99990.81
2019-01-20T09:11:18.486Z,99999.42
2019-01-20T09:13:47.671Z,100002.23
2019-01-20T09:16:17.153Z,100007.53
2019-01-20T09:18:46.343Z,100007.52
2019-01-20T09:21:16.122Z,100014.95
2019-01-20T09:23:45.323Z,100023.91
2019-01-20T09:26:14.792Z,100031.19
2019-01-20T09:28:43.979Z,100027.22
2019-01-20T09:31:13.705Z,100036.80
2019-01-20T09:33:43.261Z,100038.95
2019-01-20T09:36:12.433Z,100039.94
2019-01-20T09:38:41.936Z,100040.12
2019-01-20T09:41:11.133Z,100044.55
2019-01-20T09:43:47.171Z,100048.36
2019-01-20T09:46:12.045Z,100061.94
2019-01-20T09:48:42.186Z,100051.78
2019-01-20T09:51:11.924Z,100056.09
2019-01-20T09:53:41.140Z,100055.88
2019-01-20T09:56:10.337Z,100059.34
2019-01-20T09:58:39.539Z,100073.41
2019-01-20T10:01:08.756Z,100072.40
2019-01-20T10:03:38.190Z,100075.71
2019-01-20T10:06:07.674Z,100074.35
2019-01-20T10:08:37.115Z,100080.97
2019-01-20T10:11:06.345Z,100086.23
2019-01-20T10:13:35.806Z,100089.88
2019-01-20T10:16:05.457Z,100094.17
2019-01-20T10:18:53.996Z,100095.97
2019-01-20T10:21:23.468Z,100093.12
2019-01-20T10:23:52.707Z,100095.10
2019-01-20T10:26:21.944Z,100087.75
2019-01-20T10:28:51.856Z,100093.67
2019-01-20T10:31:21.136Z,100095.31
2019-01-20T10:34:11.248Z,100096.61
2019-01-20T10:36:40.705Z,100092.39
2019-01-20T10:39:12.012Z,100096.45
2019-01-20T10:41:41.483Z,100099.42
2019-01-20T10:44:10.662Z,100103.56
2019-01-20T10:46:40.149Z,100105.69
2019-01-20T10:49:09.578Z,100111.27
2019-01-20T10:51:39.619Z,100118.60
2019-01-20T10:54:08.790Z,100114.08
2019-01-20T10:56:38.273Z,100120.00
2019-01-20T10:59:07.721Z,100118.39
2019-01-20T11:01:36.950Z,100117.95
2019-01-20T11:04:06.829Z,100119.92
2019-01-20T11:06:36.030Z,100119.63
2019-01-20T11:09:44.605Z,100119.91
2019-01-20T11:12:14.108Z,100114.34
2019-01-20T11:14:43.318Z,100114.73
2019-01-20T11:17:12.533Z,100116.06
2019-01-20T11:19:41.988Z,100109.37
2019-01-20T11:22:11.470Z,100117.55
2019-01-20T11:24:40.953Z,100120.31
2019-01-20T11:27:10.157Z,100114.73
2019-01-20T11:29:39.360Z,100110.61
2019-01-20T11:32:09.058Z,100111.23
2019-01-20T11:34:38.346Z,100114.50
2019-01-20T11:37:07.558Z,100116.06
2019-01-20T11:39:37.699Z,100118.19
2019-01-20T11:42:07.206Z,100117.00
2019-01-20T11:44:37.538Z,100115.48
2019-01-20T11:47:07.648Z,100116.06
2019-01-20T11:49:37.159Z,100121.58
2019-01-20T11:52:45.860Z,100116.34
2019-01-20T11:58:23.357Z,100117.72
2019-01-20T12:00:52.914Z,100120.44
2019-01-20T12:03:41.456Z,100122.91
2019-01-20T12:06:10.915Z,100121.86
2019-01-20T12:08:40.420Z,100122.86
2019-01-20T12:11:09.620Z,100128.30
2019-01-20T12:13:39.116Z,100126.62
2019-01-20T12:16:08.820Z,100133.36
2019-01-20T12:18:38.684Z,100136.88
2019-01-20T12:21:08.282Z,100130.44
2019-01-20T12:23:37.481Z,100133.13
2019-01-20T12:26:06.654Z,100129.19
2019-01-20T12:28:36.108Z,100124.13
2019-01-20T12:31:05.742Z,100126.44
2019-01-20T12:33:35.307Z,100132.42
2019-01-20T12:36:04.591Z,100128.16
2019-01-20T12:38:34.121Z,100131.10
2019-01-20T12:41:03.422Z,100134.33
2019-01-20T12:43:32.694Z,100135.23
2019-01-20T12:46:01.933Z,100135.22
2019-01-20T12:48:31.141Z,100131.29
2019-01-20T12:51:00.550Z,100134.52
2019-01-20T12:53:30.465Z,100130.82
2019-01-20T12:55:59.913Z,100134.55
2019-01-20T12:58:29.131Z,100134.67
2019-01-20T13:00:58.325Z,100141.99
2019-01-20T13:03:28.360Z,100129.05
2019-01-20T13:05:58.081Z,100137.08
2019-01-20T13:08:27.401Z,100142.55
2019-01-20T13:10:56.582Z,100146.31
2019-01-20T13:13:26.055Z,100148.72
2019-01-20T13:15:57.222Z,100149.92
2019-01-20T13:18:26.536Z,100151.93
2019-01-20T13:20:56.304Z,100152.86
2019-01-20T13:23:25.759Z,100150.03
2019-01-20T13:25:55.243Z,100156.63
2019-01-20T13:28:24.473Z,100155.00
2019-01-20T13:30:53.958Z,100150.98
2019-01-20T13:33:23.124Z,100152.56
2019-01-20T13:35:52.693Z,100157.80
2019-01-20T13:38:23.647Z,100154.55
2019-01-20T13:41:30.921Z,100154.47
2019-01-20T13:44:00.455Z,100161.66
2019-01-20T13:46:29.950Z,100161.21
2019-01-20T13:48:59.181Z,100169.28
2019-01-20T13:51:28.422Z,100169.02
2019-01-20T13:53:57.924Z,100173.71
2019-01-20T13:56:27.132Z,100173.97
2019-01-20T13:58:56.631Z,100173.75
2019-01-20T14:01:26.959Z,100177.83
2019-01-20T14:03:57.076Z,100184.11
2019-01-20T14:06:26.605Z,100189.86
2019-01-20T14:08:56.179Z,100191.56
2019-01-20T14:11:25.722Z,100202.59
2019-01-20T14:16:44.762Z,100209.53
2019-01-20T14:19:32.955Z,100216.82
2019-01-20T14:22:02.443Z,100227.04
2019-01-20T14:24:32.162Z,100225.91
2019-01-20T14:27:01.930Z,100228.42
2019-01-20T14:29:31.131Z,100227.88
2019-01-20T14:32:00.673Z,100231.92
2019-01-20T14:34:30.135Z,100235.27
2019-01-20T14:37:00.008Z,100237.84
2019-01-20T14:39:29.419Z,100237.45
2019-01-20T14:41:58.651Z,100235.20
2019-01-20T14:44:28.128Z,100237.14
2019-01-20T14:46:57.308Z,100240.75
2019-01-20T14:49:26.482Z,100241.70
2019-01-20T14:51:55.960Z,100240.52
2019-01-20T14:54:25.140Z,100243.59
2019-01-20T14:56:54.343Z,100241.51
2019-01-20T14:59:23.771Z,100236.73
2019-01-20T15:01:53.288Z,100232.20
2019-01-20T15:04:22.728Z,100231.52
2019-01-20T15:06:52.384Z,100236.89
2019-01-20T15:09:21.573Z,100233.01
2019-01-20T15:11:51.076Z,100233.97
2019-01-20T15:14:20.505Z,100229.09
2019-01-20T15:16:49.977Z,100230.02
2019-01-20T15:19:19.154Z,100228.06
2019-01-20T15:21:48.936Z,100227.48
2019-01-20T15:24:18.405Z,100227.31
2019-01-20T15:26:47.607Z,100231.78
2019-01-20T15:29:17.073Z,100223.55
2019-01-20T15:31:46.291Z,100226.98
2019-01-20T15:34:15.722Z,100226.64
2019-01-20T15:36:44.912Z,100219.05
2019-01-20T15:39:14.131Z,100224.29
2019-01-20T15:41:43.337Z,100230.59
2019-01-20T15:44:12.877Z,100237.16
2019-01-20T15:46:42.060Z,100234.92
2019-01-20T15:49:11.575Z,100240.86
2019-01-20T15:51:41.003Z,100239.45
2019-01-20T15:54:10.235Z,100242.34
2019-01-20T15:56:39.986Z,100241.23
2019-01-20T15:59:09.197Z,100245.47
2019-01-20T16:01:38.385Z,100244.38
2019-01-20T16:04:07.854Z,100242.41
2019-01-20T16:06:37.689Z,100237.81
2019-01-20T16:09:47.817Z,100238.33
2019-01-20T16:12:28.376Z,100235.03
2019-01-20T16:14:57.589Z,100233.41
2019-01-20T16:17:26.812Z,100240.28
2019-01-20T16:19:56.311Z,100244.11
2019-01-20T16:22:25.486Z,100235.20
2019-01-20T16:24:55.210Z,100231.14
2019-01-20T16:27:24.752Z,100229.20
2019-01-20T16:29:53.970Z,100232.72
2019-01-20T16:32:23.145Z,100226.76
2019-01-20T16:34:52.359Z,100225.12
2019-01-20T16:37:21.811Z,100221.84
2019-01-20T16:39:51.290Z,100223.16
2019-01-20T16:42:20.752Z,100224.02
2019-01-20T16:44:49.961Z,100222.54
2019-01-20T16:47:19.835Z,100220.53
2019-01-20T16:49:49.607Z,100222.03
2019-01-20T16:52:18.809Z,100225.34
2019-01-20T16:54:48.286Z,100229.95
2019-01-20T16:57:17.877Z,100236.02
2019-01-20T16:59:47.116Z,100240.28
2019-01-20T17:02:16.314Z,100241.05
2019-01-20T17:04:46.175Z,100243.05
2019-01-20T17:07:15.389Z,100239.97
2019-01-20T17:09:44.863Z,100246.36
2019-01-20T17:12:14.307Z,100244.89
2019-01-20T17:14:43.540Z,100247.42
2019-01-20T17:17:12.720Z,100246.09
2019-01-20T17:19:42.190Z,100249.41
2019-01-20T17:22:11.389Z,100245.27
2019-01-20T17:24:40.600Z,100248.41
2019-01-20T17:27:10.101Z,100250.06
2019-01-20T17:29:39.334Z,100250.73
2019-01-20T17:32:08.520Z,100249.55
2019-01-20T17:34:38.287Z,100250.52
2019-01-20T17:37:08.141Z,100248.05
2019-01-20T17:39:37.893Z,100242.39
2019-01-20T17:42:07.494Z,100238.73
2019-01-20T17:44:37.099Z,100242.11
2019-01-20T17:47:06.696Z,100249.73
2019-01-20T17:49:36.951Z,100254.05
2019-01-20T17:52:06.451Z,100257.53
2019-01-20T17:54:35.632Z,100257.36
2019-01-20T17:57:04.953Z,100257.70
2019-01-20T17:59:34.172Z,100262.85
2019-01-20T18:02:03.396Z,100265.84
2019-01-20T18:04:32.900Z,100272.30
2019-01-20T18:07:02.377Z,100260.19
2019-01-20T18:09:31.942Z,100280.92
2019-01-20T18:12:01.873Z,100283.44
2019-01-20T18:14:31.108Z,100282.11
2019-01-20T18:17:00.432Z,100283.58
2019-01-20T18:19:29.643Z,100286.23
2019-01-20T18:21:59.220Z,100286.74
2019-01-20T18:24:28.674Z,100289.23
2019-01-20T18:38:00.062Z,100300.36
2019-01-20T18:40:29.555Z,100308.00
2019-01-20T18:42:59.063Z,100304.41
2019-01-20T18:45:30.652Z,100314.52
2019-01-20T18:53:37.698Z,100317.39
2019-01-20T18:56:07.188Z,100318.61
2019-01-20T18:58:36.672Z,100320.61
2019-01-20T19:01:06.756Z,100321.08
2019-01-20T19:03:36.674Z,100320.83
2019-01-20T19:06:06.285Z,100326.05
2019-01-20T19:08:35.482Z,100321.80
2019-01-20T19:37:34.349Z,100351.71
2019-01-20T19:40:03.733Z,100350.18
2019-01-20T19:42:52.078Z,100355.94
2019-01-20T19:45:21.400Z,100363.23
2019-01-20T19:47:50.626Z,100355.48
2019-01-20T19:50:20.110Z,100348.41
2019-01-20T19:52:55.394Z,100368.97
2019-01-20T20:29:49.575Z,100412.05
2019-01-20T20:32:18.809Z,100403.98
2019-01-20T20:34:48.657Z,100416.98
2019-01-20T20:37:18.569Z,100421.95
2019-01-20T20:39:48.613Z,100425.08
2019-01-20T21:12:25.700Z,100455.20
2019-01-20T21:14:54.935Z,100450.51
2019-01-20T21:17:24.506Z,100455.72
2019-01-20T21:19:56.278Z,100461.25
2019-01-20T22:00:00.474Z,100496.52
2019-01-20T22:02:30.079Z,100498.31
2019-01-20T22:04:59.276Z,100504.17
2019-01-20T22:07:28.485Z,100496.67
2019-01-20T22:33:43.422Z,100533.84
2019-01-20T22:36:12.919Z,100531.63
2019-01-20T22:38:42.372Z,100535.23
2019-01-20T22:41:12.210Z,100527.61
2019-01-20T22:49:15.179Z,100536.27
2019-01-20T22:51:44.671Z,100532.58
2019-01-20T22:54:13.875Z,100537.50
2019-01-20T22:56:43.075Z,100538.77
2019-01-20T22:59:12.817Z,100543.52
2019-01-20T23:01:42.103Z,100540.89
2019-01-20T23:04:11.842Z,100549.66
2019-01-20T23:06:41.720Z,100556.47
2019-01-20T23:09:11.245Z,100550.19
2019-01-20T23:11:40.995Z,100555.63
2019-01-20T23:14:10.187Z,100553.73
2019-01-20T23:16:39.370Z,100565.84
2019-01-20T23:19:08.535Z,100569.15
2019-01-20T23:21:37.735Z,100563.45
2019-01-20T23:24:06.939Z,100562.39
2019-01-20T23:26:36.140Z,100564.77
2019-01-20T23:29:44.706Z,100562.60
2019-01-20T23:32:14.626Z,100565.94
2019-01-20T23:34:44.679Z,100559.12
2019-01-20T23:37:15.005Z,100569.56
2019-01-20T23:39:44.437Z,100566.56
2019-01-20T23:42:13.958Z,100574.02
2019-01-20T23:44:43.136Z,100563.02
2019-01-20T23:47:15.255Z,100571.09
2019-01-20T23:49:43.776Z,100564.07
2019-01-20T23:52:31.920Z,100564.70
2019-01-20T23:55:01.638Z,100560.31
2019-01-20T23:58:10.508Z,100566.77
